createdAt,value
2023-04-14T00:00:25.142Z,34.80
2023-04-14T00:03:10.403Z,40.20
2023-04-14T00:05:39.752Z,34.50
2023-04-14T00:08:12.427Z,30.40
2023-04-14T00:10:42.890Z,35.80
2023-04-14T00:13:11.350Z,31.60
2023-04-14T00:15:42.698Z,37.70
2023-04-14T00:18:12.296Z,36.40
2023-04-14T00:20:40.634Z,37.50
2023-04-14T00:23:11.499Z,32.50
2023-04-14T00:25:40.364Z,44.30
2023-04-14T00:28:08.706Z,41.10
2023-04-14T00:30:40.251Z,43.90
2023-04-14T00:33:10.945Z,44.00
2023-04-14T00:35:39.449Z,44.80
2023-04-14T00:38:07.827Z,47.20
2023-04-14T00:40:36.415Z,47.80
2023-04-14T00:43:04.729Z,48.00
2023-04-14T00:45:44.182Z,49.60
2023-04-14T00:48:16.980Z,52.80
2023-04-14T00:50:46.400Z,47.30
2023-04-14T00:53:14.995Z,53.00
2023-04-14T00:55:43.685Z,54.10
2023-04-14T00:58:14.812Z,55.30
2023-04-14T01:00:43.340Z,48.50
2023-04-14T01:03:14.225Z,49.30
2023-04-14T01:05:43.657Z,55.80
2023-04-14T01:08:12.450Z,57.40
2023-04-14T01:10:54.035Z,59.10
2023-04-14T01:13:55.704Z,56.50
2023-04-14T01:16:34.143Z,54.40
2023-04-14T01:19:34.337Z,56.80
2023-04-14T01:22:06.967Z,55.80
2023-04-14T01:27:52.601Z,60.90
2023-04-14T01:30:39.865Z,63.50
2023-04-14T01:33:15.823Z,72.40
2023-04-14T01:35:53.345Z,65.40
2023-04-14T01:38:33.174Z,64.40
2023-04-14T01:41:06.798Z,65.90
2023-04-14T01:43:42.374Z,65.80
2023-04-14T01:46:14.934Z,79.30
2023-04-14T01:48:46.377Z,62.50
2023-04-14T01:51:19.091Z,65.10
2023-04-14T01:53:49.718Z,67.00
2023-04-14T01:56:19.649Z,61.90
2023-04-14T01:58:49.528Z,62.40
2023-04-14T02:01:20.299Z,66.30
2023-04-14T02:03:50.406Z,62.60
2023-04-14T02:06:23.096Z,62.90
2023-04-14T02:08:52.574Z,58.00
2023-04-14T02:11:22.302Z,62.30
2023-04-14T02:13:52.802Z,63.00
2023-04-14T02:16:23.958Z,66.10
2023-04-14T02:18:52.624Z,65.70
2023-04-14T02:21:26.833Z,58.70
2023-04-14T02:23:56.398Z,58.00
2023-04-14T02:26:31.237Z,64.20
2023-04-14T02:29:21.375Z,65.80
2023-04-14T02:32:11.855Z,64.80
2023-04-14T02:34:53.880Z,62.60
2023-04-14T02:37:26.243Z,57.50
2023-04-14T02:40:02.450Z,61.10
2023-04-14T02:42:37.426Z,58.70
2023-04-14T02:45:12.219Z,64.30
2023-04-14T02:47:48.343Z,58.00
2023-04-14T02:50:19.560Z,65.90
2023-04-14T02:53:00.273Z,67.90
2023-04-14T02:55:34.959Z,51.00
2023-04-14T02:58:04.517Z,60.60
2023-04-14T03:00:35.994Z,59.10
2023-04-14T03:03:07.003Z,57.60
2023-04-14T03:05:37.092Z,64.60
2023-04-14T03:08:16.230Z,62.50
2023-04-14T03:10:49.193Z,60.60
2023-04-14T03:13:22.654Z,63.30
2023-04-14T03:15:53.316Z,68.00
2023-04-14T03:18:22.809Z,60.00
2023-04-14T03:20:56.006Z,63.30
2023-04-14T03:23:26.131Z,64.00
2023-04-14T03:26:01.744Z,61.60
2023-04-14T03:28:37.568Z,65.90
2023-04-14T03:31:09.593Z,68.40
2023-04-14T03:33:58.319Z,69.60
2023-04-14T03:36:33.089Z,74.00
2023-04-14T03:39:06.189Z,73.80
2023-04-14T03:41:39.976Z,73.70
2023-04-14T03:44:15.991Z,78.30
2023-04-14T03:46:49.476Z,72.20
2023-04-14T03:49:21.117Z,68.90
2023-04-14T03:51:53.730Z,75.60
2023-04-14T03:54:25.659Z,63.20
2023-04-14T03:56:57.240Z,61.30
2023-04-14T03:59:35.750Z,71.10
2023-04-14T04:02:05.762Z,63.60
2023-04-14T04:04:36.904Z,64.80
2023-04-14T04:07:10.687Z,66.60
2023-04-14T04:09:41.373Z,64.20
2023-04-14T04:12:12.162Z,63.70
2023-04-14T04:14:40.695Z,63.20
2023-04-14T04:17:12.971Z,67.60
2023-04-14T04:19:43.916Z,67.50
2023-04-14T04:22:17.578Z,73.70
2023-04-14T04:24:47.581Z,60.40
2023-04-14T04:27:28.048Z,65.10
2023-04-14T04:30:02.404Z,62.00
2023-04-14T04:32:33.903Z,65.40
2023-04-14T04:35:03.716Z,67.90
2023-04-14T04:37:33.667Z,57.80
2023-04-14T04:40:04.055Z,63.10
2023-04-14T04:42:33.173Z,59.10
2023-04-14T04:45:02.225Z,58.50
2023-04-14T04:47:31.597Z,57.50
2023-04-14T04:50:01.104Z,55.90
2023-04-14T04:52:32.223Z,54.10
2023-04-14T04:55:00.595Z,50.80
2023-04-14T04:57:28.972Z,52.30
2023-04-14T04:59:57.243Z,52.20
2023-04-14T05:02:26.165Z,52.00
2023-04-14T05:04:54.788Z,45.90
2023-04-14T05:07:23.176Z,51.20
2023-04-14T05:09:53.710Z,47.90
2023-04-14T05:12:23.402Z,52.40
2023-04-14T05:14:51.768Z,41.40
2023-04-14T05:17:21.954Z,44.90
2023-04-14T05:19:50.269Z,41.20
2023-04-14T05:22:18.550Z,37.10
2023-04-14T05:24:50.864Z,34.50
2023-04-14T05:27:19.141Z,31.30
2023-04-14T05:29:48.435Z,31.20
2023-04-14T05:32:16.824Z,28.30
2023-04-14T05:34:45.457Z,25.80
2023-04-14T05:37:13.849Z,25.70
2023-04-14T05:39:42.154Z,33.70
2023-04-14T05:42:11.317Z,23.90
2023-04-14T05:44:39.979Z,24.00
2023-04-14T05:47:09.035Z,22.40
2023-04-14T05:49:37.457Z,19.90
2023-04-14T05:52:05.803Z,21.30
2023-04-14T05:54:41.319Z,20.10
2023-04-14T05:57:11.754Z,23.80
2023-04-14T05:59:40.082Z,16.70
2023-04-14T06:02:08.447Z,15.40
2023-04-14T06:04:37.928Z,14.10
2023-04-14T06:07:06.384Z,12.20
2023-04-14T06:09:34.849Z,12.20
2023-04-14T06:12:09.280Z,13.30
2023-04-14T06:14:38.085Z,14.70
2023-04-14T06:17:10.351Z,11.20
2023-04-14T06:19:38.876Z,11.90
2023-04-14T06:22:08.699Z,14.20
2023-04-14T06:24:37.122Z,9.60
2023-04-14T06:27:05.597Z,8.60
2023-04-14T06:29:35.586Z,9.90
2023-04-14T06:32:04.389Z,8.60
2023-04-14T06:34:33.349Z,9.70
2023-04-14T06:37:02.984Z,6.70
2023-04-14T06:39:31.364Z,6.90
2023-04-14T06:42:03.037Z,7.60
2023-04-14T06:44:32.126Z,4.90
2023-04-14T06:47:00.569Z,6.20
2023-04-14T06:49:34.031Z,6.30
2023-04-14T06:52:05.879Z,4.30
2023-04-14T06:54:35.151Z,4.90
2023-04-14T06:57:03.502Z,5.70
2023-04-14T06:59:33.517Z,24.00
2023-04-14T07:02:02.214Z,20.50
2023-04-14T07:04:30.961Z,7.20
2023-04-14T07:07:01.420Z,7.30
2023-04-14T07:09:29.988Z,7.30
2023-04-14T07:11:58.356Z,7.40
2023-04-14T07:14:26.731Z,6.10
2023-04-14T07:16:57.561Z,7.80
2023-04-14T07:19:26.250Z,11.40
2023-04-14T07:21:54.641Z,6.80
2023-04-14T07:24:24.370Z,6.10
2023-04-14T07:26:53.282Z,7.20
2023-04-14T07:29:22.251Z,9.10
2023-04-14T07:31:53.794Z,7.80
2023-04-14T07:34:22.870Z,7.50
2023-04-14T07:36:51.875Z,11.50
2023-04-14T07:39:23.907Z,7.10
2023-04-14T07:41:53.014Z,5.70
2023-04-14T07:44:24.733Z,6.20
2023-04-14T07:46:53.766Z,7.40
2023-04-14T07:49:22.187Z,6.70
2023-04-14T07:51:51.277Z,25.70
2023-04-14T07:54:20.228Z,9.30
2023-04-14T07:56:49.035Z,11.60
2023-04-14T07:59:17.738Z,8.10
2023-04-14T08:01:46.794Z,7.70
2023-04-14T08:04:15.947Z,6.90
2023-04-14T08:06:44.901Z,6.60
2023-04-14T08:09:45.986Z,15.30
2023-04-14T08:12:15.027Z,7.10
2023-04-14T08:14:43.458Z,9.30
2023-04-14T08:17:12.203Z,18.20
2023-04-14T08:19:41.501Z,12.70
2023-04-14T08:22:11.321Z,13.00
2023-04-14T08:24:42.268Z,15.40
2023-04-14T08:27:10.631Z,9.30
2023-04-14T08:29:39.087Z,8.90
2023-04-14T08:32:07.698Z,15.20
2023-04-14T08:34:36.975Z,9.00
2023-04-14T08:37:05.696Z,10.20
2023-04-14T08:39:34.625Z,15.80
2023-04-14T08:42:03.369Z,9.80
2023-04-14T08:44:31.966Z,9.40
2023-04-14T08:47:00.701Z,16.80
2023-04-14T08:49:39.899Z,8.90
2023-04-14T08:52:12.558Z,8.40
2023-04-14T08:57:12.104Z,10.10
2023-04-14T08:59:42.534Z,15.20
2023-04-14T09:02:13.581Z,12.10
2023-04-14T09:04:43.128Z,9.90
2023-04-14T09:07:13.037Z,7.20
2023-04-14T09:09:44.176Z,9.20
2023-04-14T09:12:15.904Z,7.70
2023-04-14T09:14:48.642Z,10.70
2023-04-14T09:17:17.644Z,9.30
2023-04-14T09:20:37.907Z,6.10
2023-04-14T09:22:36.735Z,6.00
2023-04-14T09:25:10.931Z,6.60
2023-04-14T09:27:43.701Z,8.10
2023-04-14T09:30:12.713Z,7.90
2023-04-14T09:32:43.801Z,6.60
2023-04-14T09:35:14.518Z,4.30
2023-04-14T09:37:48.888Z,5.70
2023-04-14T09:40:31.834Z,5.90
2023-04-14T09:43:01.257Z,4.50
2023-04-14T09:45:45.284Z,4.50
2023-04-14T09:48:14.149Z,5.40
2023-04-14T09:51:14.080Z,5.70
2023-04-14T09:53:48.598Z,6.70
2023-04-14T09:56:18.245Z,6.50
2023-04-14T09:58:50.616Z,4.40
2023-04-14T10:01:20.322Z,3.70
2023-04-14T10:03:50.677Z,4.50
2023-04-14T10:06:24.523Z,3.80
2023-04-14T10:08:55.060Z,4.40
2023-04-14T10:11:25.213Z,5.10
2023-04-14T10:13:54.894Z,4.00
2023-04-14T10:16:25.024Z,4.60
2023-04-14T10:18:54.978Z,4.80
2023-04-14T10:21:23.573Z,7.60
2023-04-14T10:23:52.440Z,4.00
2023-04-14T10:26:21.317Z,4.20
2023-04-14T10:28:51.711Z,4.20
2023-04-14T10:31:40.660Z,5.20
2023-04-14T10:34:13.908Z,3.70
2023-04-14T10:36:44.200Z,4.60
2023-04-14T10:39:12.803Z,10.70
2023-04-14T10:41:47.949Z,4.40
2023-04-14T10:44:29.253Z,3.60
2023-04-14T10:47:00.508Z,4.50
2023-04-14T10:49:37.245Z,5.60
2023-04-14T10:52:14.940Z,6.80
2023-04-14T10:54:53.694Z,6.60
2023-04-14T10:57:23.784Z,5.50
2023-04-14T10:59:59.119Z,26.70
2023-04-14T11:02:32.243Z,12.00
2023-04-14T11:05:06.646Z,10.10
2023-04-14T11:07:52.019Z,10.50
2023-04-14T11:10:20.928Z,6.60
2023-04-14T11:13:11.703Z,5.50
2023-04-14T11:15:51.690Z,6.30
2023-04-14T11:18:33.395Z,6.50
2023-04-14T11:21:07.006Z,6.00
2023-04-14T11:23:36.980Z,7.00
2023-04-14T11:26:12.554Z,5.30
2023-04-14T11:28:47.059Z,9.00
2023-04-14T11:31:17.445Z,6.20
2023-04-14T11:33:46.361Z,5.00
2023-04-14T11:36:17.853Z,7.20
2023-04-14T11:38:48.040Z,4.60
2023-04-14T11:41:16.523Z,6.60
2023-04-14T11:43:47.294Z,10.60
2023-04-14T11:46:19.490Z,5.80
2023-04-14T11:48:55.416Z,6.90
2023-04-14T11:51:32.732Z,6.50
2023-04-14T11:54:02.348Z,4.60
2023-04-14T11:56:32.512Z,5.50
2023-04-14T11:59:03.596Z,18.20
2023-04-14T12:01:33.424Z,8.50
2023-04-14T12:04:04.296Z,5.40
2023-04-14T12:06:36.604Z,5.10
2023-04-14T12:09:11.716Z,13.70
2023-04-14T12:11:40.660Z,6.60
2023-04-14T12:14:09.616Z,6.40
2023-04-14T12:16:38.468Z,5.30
2023-04-14T12:19:07.811Z,7.80
2023-04-14T12:21:36.237Z,4.30
2023-04-14T12:24:04.854Z,4.00
2023-04-14T12:26:34.310Z,3.70
2023-04-14T12:29:03.475Z,4.00
2023-04-14T12:31:32.169Z,6.20
2023-04-14T12:34:04.253Z,5.60
2023-04-14T12:36:49.030Z,16.60
2023-04-14T12:39:23.224Z,8.00
2023-04-14T12:41:51.657Z,5.40
2023-04-14T12:44:21.600Z,4.80
2023-04-14T12:46:52.960Z,10.60
2023-04-14T12:49:39.021Z,5.90
2023-04-14T12:52:08.871Z,7.50
2023-04-14T12:54:48.967Z,6.00
2023-04-14T12:57:22.097Z,5.30
2023-04-14T12:59:50.786Z,8.70
2023-04-14T13:02:19.498Z,6.40
2023-04-14T13:04:48.268Z,7.80
2023-04-14T13:07:17.193Z,10.90
2023-04-14T13:09:45.772Z,6.40
2023-04-14T13:12:14.353Z,9.70
2023-04-14T13:14:46.208Z,7.40
2023-04-14T13:17:16.414Z,7.40
2023-04-14T13:19:45.025Z,8.40
2023-04-14T13:22:14.271Z,5.00
2023-04-14T13:24:44.068Z,8.20
2023-04-14T13:27:12.612Z,3.90
2023-04-14T13:29:46.682Z,6.40
2023-04-14T13:32:15.624Z,5.60
2023-04-14T13:34:44.101Z,6.50
2023-04-14T13:37:13.093Z,12.80
2023-04-14T13:39:42.149Z,6.10
2023-04-14T13:42:10.600Z,5.30
2023-04-14T13:44:39.424Z,6.80
2023-04-14T13:47:09.019Z,6.40
2023-04-14T13:49:38.659Z,6.10
2023-04-14T13:52:08.555Z,6.00
2023-04-14T13:54:36.960Z,6.00
2023-04-14T13:57:05.600Z,9.20
2023-04-14T13:59:34.008Z,11.90
2023-04-14T14:02:02.974Z,5.80
2023-04-14T14:04:37.212Z,4.70
2023-04-14T14:09:34.546Z,4.60
2023-04-14T14:12:03.377Z,3.70
2023-04-14T14:14:31.934Z,4.10
2023-04-14T14:17:00.295Z,6.30
2023-04-14T14:19:28.734Z,7.40
2023-04-14T14:21:57.229Z,5.50
2023-04-14T14:24:25.446Z,4.80
2023-04-14T14:26:54.044Z,4.40
2023-04-14T14:29:22.534Z,2.80
2023-04-14T14:31:51.961Z,3.70
2023-04-14T14:34:20.884Z,4.30
2023-04-14T14:36:49.285Z,6.30
2023-04-14T14:39:22.080Z,3.70
2023-04-14T14:41:51.652Z,9.10
2023-04-14T14:44:20.110Z,3.70
2023-04-14T14:46:53.647Z,6.10
2023-04-14T14:49:22.442Z,7.90
2023-04-14T14:51:50.926Z,7.40
2023-04-14T14:54:19.391Z,8.40
2023-04-14T14:56:48.087Z,8.00
2023-04-14T14:59:16.768Z,7.70
2023-04-14T15:01:47.042Z,6.60
2023-04-14T15:04:16.395Z,10.10
2023-04-14T15:06:45.079Z,6.70
2023-04-14T15:09:14.633Z,12.80
2023-04-14T15:11:47.431Z,12.00
2023-04-14T15:14:16.027Z,10.10
2023-04-14T15:16:44.497Z,11.00
2023-04-14T15:19:16.463Z,8.30
2023-04-14T15:21:46.020Z,5.20
2023-04-14T15:24:14.334Z,4.20
2023-04-14T15:26:48.585Z,6.10
2023-04-14T15:29:19.506Z,5.10
2023-04-14T15:31:48.299Z,5.20
2023-04-14T15:34:17.163Z,5.40
2023-04-14T15:36:45.641Z,4.50
2023-04-14T15:39:14.325Z,7.10
2023-04-14T15:41:44.632Z,5.70
2023-04-14T15:44:13.250Z,8.50
2023-04-14T15:46:41.466Z,5.40
2023-04-14T15:49:11.405Z,5.10
2023-04-14T15:51:41.408Z,4.20
2023-04-14T15:54:09.846Z,5.20
2023-04-14T15:56:38.579Z,7.10
2023-04-14T15:59:07.396Z,4.50
2023-04-14T16:01:36.126Z,4.50
2023-04-14T16:04:05.233Z,4.20
2023-04-14T16:06:36.510Z,4.10
2023-04-14T16:09:05.528Z,4.30
2023-04-14T16:11:34.192Z,4.80
2023-04-14T16:14:03.340Z,8.90
2023-04-14T16:16:32.826Z,9.50
2023-04-14T16:19:01.222Z,4.80
2023-04-14T16:21:30.081Z,7.00
2023-04-14T16:23:58.583Z,5.00
2023-04-14T16:26:26.961Z,6.00
2023-04-14T16:29:02.843Z,4.80
2023-04-14T16:31:31.925Z,5.70
2023-04-14T16:34:00.756Z,6.30
2023-04-14T16:36:29.759Z,5.40
2023-04-14T16:38:58.658Z,8.70
2023-04-14T16:41:27.354Z,6.60
2023-04-14T16:43:55.928Z,5.70
2023-04-14T16:46:26.112Z,4.70
2023-04-14T16:48:54.579Z,7.70
2023-04-14T16:51:28.080Z,7.10
2023-04-14T16:53:56.865Z,8.80
2023-04-14T16:56:25.424Z,11.50
2023-04-14T16:58:53.717Z,7.40
2023-04-14T17:01:22.312Z,9.10
2023-04-14T17:03:51.476Z,9.00
2023-04-14T17:06:20.061Z,8.90
2023-04-14T17:08:48.712Z,8.10
2023-04-14T17:11:17.064Z,7.80
2023-04-14T17:13:45.294Z,5.60
2023-04-14T17:16:18.891Z,6.10
2023-04-14T17:18:48.463Z,7.60
2023-04-14T17:21:16.938Z,6.00
2023-04-14T17:23:55.527Z,7.40
2023-04-14T17:26:24.963Z,6.10
2023-04-14T17:28:53.198Z,11.00
2023-04-14T17:31:25.134Z,8.30
2023-04-14T17:33:54.282Z,10.50
2023-04-14T17:36:22.991Z,5.20
2023-04-14T17:38:52.245Z,4.90
2023-04-14T17:41:21.457Z,4.40
2023-04-14T17:43:54.177Z,3.90
2023-04-14T17:46:29.466Z,3.00
2023-04-14T17:48:58.050Z,2.70
2023-04-14T17:51:31.265Z,2.60
2023-04-14T17:54:00.121Z,2.40
2023-04-14T17:56:31.597Z,2.70
2023-04-14T17:59:01.754Z,2.90
2023-04-14T18:01:30.540Z,3.10
2023-04-14T18:04:00.505Z,3.10
2023-04-14T18:06:33.837Z,2.90
2023-04-14T18:09:04.362Z,11.00
2023-04-14T18:11:33.542Z,2.60
2023-04-14T18:14:02.131Z,3.30
2023-04-14T18:16:32.993Z,3.80
2023-04-14T18:19:01.950Z,3.30
2023-04-14T18:21:31.131Z,3.50
2023-04-14T18:26:36.874Z,6.90
2023-04-14T18:29:05.391Z,4.50
2023-04-14T18:31:34.001Z,5.20
2023-04-14T18:34:20.382Z,5.00
2023-04-14T18:36:49.410Z,4.90
2023-04-14T18:39:19.079Z,5.30
2023-04-14T18:41:48.471Z,7.10
2023-04-14T18:44:17.263Z,5.60
2023-04-14T18:46:45.757Z,4.70
2023-04-14T18:49:15.435Z,4.80
2023-04-14T18:51:43.709Z,3.90
2023-04-14T18:54:13.363Z,5.40
2023-04-14T18:56:42.175Z,4.50
2023-04-14T18:59:10.614Z,5.40
2023-04-14T19:01:39.648Z,4.60
2023-04-14T19:04:08.278Z,6.20
2023-04-14T19:06:37.480Z,5.50
2023-04-14T19:09:06.105Z,5.20
2023-04-14T19:11:42.473Z,5.90
2023-04-14T19:14:12.983Z,4.80
2023-04-14T19:16:41.446Z,6.20
2023-04-14T19:19:10.620Z,5.60
2023-04-14T19:21:39.677Z,6.40
2023-04-14T19:24:08.463Z,5.20
2023-04-14T19:26:40.754Z,7.70
2023-04-14T19:29:11.375Z,6.80
2023-04-14T19:31:39.682Z,8.00
2023-04-14T19:34:08.032Z,8.10
2023-04-14T19:36:40.491Z,9.10
2023-04-14T19:39:09.231Z,9.50
2023-04-14T19:41:39.143Z,10.30
2023-04-14T19:44:09.193Z,11.10
2023-04-14T19:46:37.623Z,9.30
2023-04-14T19:49:08.359Z,8.50
2023-04-14T19:51:37.616Z,11.20
2023-04-14T19:54:09.542Z,8.50
2023-04-14T19:56:38.384Z,7.70
2023-04-14T19:59:08.373Z,7.10
2023-04-14T20:01:37.327Z,6.50
2023-04-14T20:04:12.822Z,8.80
2023-04-14T20:06:43.043Z,6.70
2023-04-14T20:09:12.303Z,6.70
2023-04-14T20:11:40.851Z,5.90
2023-04-14T20:14:09.495Z,7.10
2023-04-14T20:16:40.843Z,7.10
2023-04-14T20:19:09.613Z,6.90
2023-04-14T20:21:38.792Z,9.40
2023-04-14T20:24:07.345Z,6.40
2023-04-14T20:26:42.778Z,6.60
2023-04-14T20:29:12.335Z,6.20
2023-04-14T20:31:42.986Z,5.50
2023-04-14T20:34:12.269Z,4.50
2023-04-14T20:36:41.153Z,4.50
2023-04-14T20:39:10.041Z,2.90
2023-04-14T20:41:39.988Z,3.40
2023-04-14T20:44:08.350Z,3.10
2023-04-14T20:46:36.729Z,2.70
2023-04-14T20:49:08.772Z,3.40
2023-04-14T20:51:38.141Z,2.90
2023-04-14T20:54:07.297Z,3.30
2023-04-14T20:56:35.912Z,3.20
2023-04-14T20:59:04.775Z,3.40
2023-04-14T21:01:33.205Z,3.20
2023-04-14T21:04:01.567Z,2.90
2023-04-14T21:06:33.018Z,2.50
2023-04-14T21:09:02.609Z,2.40
2023-04-14T21:11:32.139Z,4.20
2023-04-14T21:15:30.990Z,2.50
2023-04-14T21:16:51.079Z,3.10
2023-04-14T21:19:19.780Z,3.50
2023-04-14T21:21:53.195Z,4.30
2023-04-14T21:24:21.627Z,4.70
2023-04-14T21:26:50.085Z,6.70
2023-04-14T21:29:18.433Z,7.50
2023-04-14T21:31:47.309Z,5.80
2023-04-14T21:34:15.573Z,6.60
2023-04-14T21:36:47.438Z,7.10
2023-04-14T21:39:15.941Z,6.90
2023-04-14T21:41:44.890Z,6.40
2023-04-14T21:44:15.900Z,6.30
2023-04-14T21:46:44.368Z,5.90
2023-04-14T21:49:12.757Z,5.10
2023-04-14T21:51:41.017Z,4.30
2023-04-14T21:54:14.070Z,4.60
2023-04-14T21:56:43.321Z,5.30
2023-04-14T21:59:11.993Z,4.30
2023-04-14T22:01:41.356Z,4.30
2023-04-14T22:04:14.518Z,4.10
2023-04-14T22:06:47.955Z,5.30
2023-04-14T22:09:17.063Z,4.00
2023-04-14T22:11:45.944Z,4.60
2023-04-14T22:14:14.376Z,4.70
2023-04-14T22:16:45.361Z,6.30
2023-04-14T22:19:14.458Z,5.40
2023-04-14T22:21:42.907Z,5.10
2023-04-14T22:24:11.353Z,5.30
2023-04-14T22:26:40.282Z,5.10
2023-04-14T22:29:10.989Z,5.30
2023-04-14T22:31:39.879Z,5.50
2023-04-14T22:34:08.914Z,5.40
2023-04-14T22:36:37.558Z,5.10
2023-04-14T22:39:05.942Z,4.70
2023-04-14T22:41:34.398Z,4.10
2023-04-14T22:44:06.143Z,4.90
2023-04-14T22:46:35.714Z,4.10
2023-04-14T22:49:04.597Z,3.70
2023-04-14T22:51:33.451Z,3.00
2023-04-14T22:54:04.906Z,3.90
2023-04-14T22:56:33.586Z,3.70
2023-04-14T22:59:02.572Z,3.20
2023-04-14T23:01:31.749Z,3.90
2023-04-14T23:04:01.632Z,3.20
2023-04-14T23:06:30.262Z,2.80
2023-04-14T23:08:59.785Z,3.60
2023-04-14T23:11:32.149Z,3.50
2023-04-14T23:14:01.162Z,2.40
2023-04-14T23:16:34.930Z,2.90
2023-04-14T23:19:06.894Z,3.00
2023-04-14T23:21:35.490Z,3.60
2023-04-14T23:24:04.339Z,4.00
2023-04-14T23:26:41.406Z,3.70
2023-04-14T23:29:10.873Z,2.90
2023-04-14T23:31:39.506Z,3.10
2023-04-14T23:34:12.106Z,3.80
2023-04-14T23:36:41.941Z,6.10
2023-04-14T23:39:10.667Z,3.50
2023-04-14T23:41:42.007Z,3.10
2023-04-14T23:44:12.660Z,3.20
2023-04-14T23:46:41.932Z,3.50
2023-04-14T23:49:23.728Z,2.90
2023-04-14T23:51:54.247Z,4.10
2023-04-14T23:54:22.537Z,4.70
2023-04-14T23:56:54.968Z,5.20
2023-04-14T23:59:23.928Z,5.50
